Time;durP1;ratioP1;P1;durP2;ratioP2;P2;SDS_P1;SDS_P2;PMS_P1;PMS_P2;Temp;Humidity;BMP_temperature;BMP_pressure;BME280_temperature;BME280_humidity;BME280_pressure;Samples;Min_cycle;Max_cycle;Signal;HPM_P1;HPM_P2
2021/05/25 00:02:34;;;;;;;6.85;2.35;;;;;;;11.87;78.24;99746.16;2171134;80;21777;-77
2021/05/25 00:05:36;;;;;;;2.47;1.80;;;;;;;11.86;77.81;99750.65;2212967;78;21581;-78
2021/05/25 00:08:37;;;;;;;3.72;1.50;;;;;;;11.85;77.79;99750.34;2208866;80;22055;-76
2021/05/25 00:11:38;;;;;;;2.52;1.57;;;;;;;11.84;77.94;99751.30;2208851;80;21017;-75
2021/05/25 00:14:39;;;;;;;2.67;1.80;;;;;;;11.83;77.67;99752.83;2177120;80;21607;-76
2021/05/25 00:17:43;;;;;;;1.70;1.60;;;;;;;11.83;77.61;99756.81;2214966;78;21016;-78
2021/05/25 00:20:44;;;;;;;3.62;1.90;;;;;;;11.82;77.68;99750.65;2180407;80;21084;-76
2021/05/25 00:23:45;;;;;;;2.12;1.85;;;;;;;11.82;77.64;99744.52;2192202;80;21714;-75
2021/05/25 00:26:47;;;;;;;3.60;2.05;;;;;;;11.82;77.64;99745.84;2195533;79;21045;-77
2021/05/25 00:29:48;;;;;;;2.85;1.70;;;;;;;11.80;77.51;99744.71;2210946;80;21588;-74
2021/05/25 00:32:50;;;;;;;2.27;1.57;;;;;;;11.81;77.73;99741.55;2187643;80;21039;-76
2021/05/25 00:35:53;;;;;;;3.83;1.80;;;;;;;11.79;77.79;99742.22;2190937;80;21106;-78
2021/05/25 00:38:54;;;;;;;3.25;1.82;;;;;;;11.76;77.74;99734.62;2174512;80;21018;-78
2021/05/25 00:41:55;;;;;;;3.08;1.87;;;;;;;11.74;77.65;99734.82;2193383;79;21019;-77
2021/05/25 00:44:57;;;;;;;4.30;1.62;;;;;;;11.71;77.76;99719.72;2195291;79;21015;-77
2021/05/25 00:47:58;;;;;;;2.20;1.50;;;;;;;11.67;78.03;99716.61;2203865;80;21932;-79
2021/05/25 00:50:59;;;;;;;2.90;1.80;;;;;;;11.62;78.10;99711.84;2210658;80;21472;-75
2021/05/25 00:54:02;;;;;;;3.47;1.67;;;;;;;11.60;78.20;99711.22;2176780;80;21135;-77
2021/05/25 00:57:04;;;;;;;2.83;1.75;;;;;;;11.57;78.48;99710.26;2181182;80;21020;-76
2021/05/25 01:00:07;;;;;;;2.72;1.62;;;;;;;11.54;78.68;99710.59;2150091;80;21064;-77
2021/05/25 01:03:11;;;;;;;2.42;1.70;;;;;;;11.51;78.83;99708.31;2178297;80;21009;-77
2021/05/25 01:06:14;;;;;;;1.80;1.67;;;;;;;11.50;78.74;99706.67;2179568;80;21422;-77
2021/05/25 01:09:17;;;;;;;2.87;1.52;;;;;;;11.49;78.75;99704.18;2180491;80;21018;-77
2021/05/25 01:12:18;;;;;;;2.72;1.67;;;;;;;11.48;78.78;99694.06;2180535;80;21876;-75
2021/05/25 01:15:20;;;;;;;3.00;1.55;;;;;;;11.49;78.53;99686.44;2175697;80;21594;-77
2021/05/25 01:18:21;;;;;;;1.80;1.70;;;;;;;11.49;78.62;99686.91;2180017;80;21794;-77
2021/05/25 01:21:26;;;;;;;3.95;2.20;;;;;;;11.51;78.65;99679.59;2180028;80;21045;-75
2021/05/25 01:24:33;;;;;;;2.67;2.00;;;;;;;11.53;78.32;99676.26;2157090;80;21035;-75
2021/05/25 01:27:34;;;;;;;1.67;1.57;;;;;;;11.60;78.26;99674.02;2185012;79;21029;-78
2021/05/25 01:30:39;;;;;;;3.15;1.75;;;;;;;11.69;78.25;99661.97;2188125;80;21029;-79
2021/05/25 01:33:42;;;;;;;2.27;1.85;;;;;;;11.73;78.06;99669.88;2185320;79;21150;-78
2021/05/25 01:36:46;;;;;;;2.47;1.80;;;;;;;11.75;77.92;99655.91;2186996;79;21011;-78
2021/05/25 01:39:52;;;;;;;3.80;1.75;;;;;;;11.82;77.92;99656.80;2186218;79;21630;-76
2021/05/25 01:42:51;;;;;;;5.17;1.77;;;;;;;11.87;77.91;99661.91;2190659;79;20985;-77
2021/05/25 01:45:52;;;;;;;2.95;2.05;;;;;;;11.84;77.75;99658.26;2189471;79;21018;-76
2021/05/25 01:48:53;;;;;;;4.85;1.65;;;;;;;11.81;77.94;99661.80;2187552;79;21000;-76
2021/05/25 01:51:54;;;;;;;1.82;1.70;;;;;;;11.73;77.86;99652.59;2184782;80;21027;-80
2021/05/25 01:54:59;;;;;;;2.10;1.70;;;;;;;11.67;77.83;99654.16;2172982;81;21007;-76
2021/05/25 01:58:08;;;;;;;2.70;1.82;;;;;;;11.63;77.90;99655.05;2170393;81;21621;-79
2021/05/25 02:01:12;;;;;;;2.75;1.80;;;;;;;11.62;77.84;99654.70;2173017;81;21021;-78
2021/05/25 02:04:16;;;;;;;3.58;2.00;;;;;;;11.64;77.85;99647.38;2171505;81;21155;-79
2021/05/25 02:07:18;;;;;;;5.72;2.12;;;;;;;11.64;77.98;99642.06;2174052;81;21040;-75
2021/05/25 02:10:27;;;;;;;2.83;1.80;;;;;;;11.63;77.98;99643.59;2171498;81;20993;-78
2021/05/25 02:13:36;;;;;;;4.70;2.00;;;;;;;11.61;77.89;99643.77;2170284;81;21044;-75
2021/05/25 02:16:37;;;;;;;3.65;1.98;;;;;;;11.60;77.97;99642.13;2166916;81;20992;-77
2021/05/25 02:19:38;;;;;;;7.05;2.05;;;;;;;11.60;77.97;99647.92;2173950;81;21074;-74
2021/05/25 02:22:39;;;;;;;3.45;2.05;;;;;;;11.61;77.94;99644.28;2170095;81;21064;-76
2021/05/25 02:25:41;;;;;;;2.60;1.90;;;;;;;11.61;77.96;99644.28;2171645;81;21254;-77
2021/05/25 02:28:43;;;;;;;3.42;2.00;;;;;;;11.60;78.00;99638.14;2170472;81;21028;-77
2021/05/25 02:31:45;;;;;;;2.70;1.77;;;;;;;11.59;78.01;99644.95;2173849;81;21088;-76
2021/05/25 02:34:46;;;;;;;3.00;1.82;;;;;;;11.58;78.02;99635.34;2170295;81;21621;-75
2021/05/25 02:37:47;;;;;;;3.70;2.12;;;;;;;11.57;78.06;99636.34;2136477;81;21580;-77
2021/05/25 02:40:50;;;;;;;2.52;1.80;;;;;;;11.57;78.14;99635.86;2169170;81;21003;-77
2021/05/25 02:43:54;;;;;;;1.90;1.70;;;;;;;11.56;78.34;99634.70;2162699;81;21133;-77
2021/05/25 02:46:55;;;;;;;3.72;2.25;;;;;;;11.54;78.31;99634.05;2167812;81;21117;-78
2021/05/25 02:50:05;;;;;;;3.52;2.00;;;;;;;11.53;78.29;99635.08;2163751;80;21096;-76
2021/05/25 02:52:59;;;;;;;2.10;1.45;;;;;;;11.52;78.35;99638.23;2167098;80;21043;-79
2021/05/25 02:56:00;;;;;;;2.67;1.77;;;;;;;11.52;78.54;99646.21;2180082;80;21097;-78
2021/05/25 02:59:02;;;;;;;2.58;1.82;;;;;;;11.51;78.40;99647.20;2178951;80;21107;-76
2021/05/25 03:02:03;;;;;;;2.15;1.90;;;;;;;11.52;78.43;99648.87;2181953;80;21048;-74
2021/05/25 03:05:08;;;;;;;4.05;2.00;;;;;;;11.53;78.36;99662.46;2179671;80;21604;-75
2021/05/25 03:08:12;;;;;;;4.10;2.02;;;;;;;11.54;78.59;99656.64;2180202;80;21002;-75
2021/05/25 03:11:13;;;;;;;2.27;2.08;;;;;;;11.53;78.48;99660.31;2177904;80;21585;-73
2021/05/25 03:14:17;;;;;;;4.42;2.12;;;;;;;11.49;78.68;99651.89;2175164;80;21069;-77
2021/05/25 03:17:22;;;;;;;6.60;2.10;;;;;;;11.48;78.72;99648.90;2178607;80;21100;-76
2021/05/25 03:20:22;;;;;;;1.90;1.80;;;;;;;11.47;78.75;99652.58;2177613;80;21068;-76
2021/05/25 03:23:23;;;;;;;4.00;2.05;;;;;;;11.48;78.79;99651.55;2179798;80;21134;-74
2021/05/25 03:26:25;;;;;;;8.00;2.40;;;;;;;11.49;78.99;99655.88;2174694;80;21084;-76
2021/05/25 03:29:26;;;;;;;3.80;2.12;;;;;;;11.49;78.80;99663.85;2184464;79;21000;-77
2021/05/25 03:32:27;;;;;;;4.62;2.42;;;;;;;11.55;78.85;99678.23;2183202;80;21688;-78
2021/05/25 03:35:28;;;;;;;3.60;1.90;;;;;;;11.61;78.81;99682.30;2180150;80;21126;-77
2021/05/25 03:38:29;;;;;;;4.03;1.90;;;;;;;11.67;78.79;99693.52;2175843;80;21065;-76
2021/05/25 03:41:31;;;;;;;5.45;2.25;;;;;;;11.74;78.76;99692.30;2147438;80;21660;-74
2021/05/25 03:44:32;;;;;;;3.77;2.50;;;;;;;11.81;78.74;99699.02;2180913;80;21349;-77
2021/05/25 03:47:34;;;;;;;3.02;2.12;;;;;;;11.89;78.82;99692.30;2175504;80;21043;-76
2021/05/25 03:50:35;;;;;;;2.72;2.12;;;;;;;11.96;78.68;99698.51;2178621;80;21000;-78
2021/05/25 03:53:36;;;;;;;3.22;2.08;;;;;;;12.05;78.81;99697.41;2172263;80;21043;-74
2021/05/25 03:56:51;;;;;;;4.20;1.82;;;;;;;12.17;78.83;99700.41;2169052;81;21093;-76
2021/05/25 03:59:40;;;;;;;3.55;2.50;;;;;;;12.25;78.58;99706.13;2162739;81;21007;-78
2021/05/25 04:02:42;;;;;;;4.42;2.72;;;;;;;12.34;78.59;99697.02;2164018;81;21019;-76
2021/05/25 04:05:43;;;;;;;4.37;2.20;;;;;;;12.51;78.66;99702.41;2164585;81;21909;-75
2021/05/25 04:08:45;;;;;;;4.75;2.50;;;;;;;12.51;78.66;99702.41;2166656;81;20996;-76
2021/05/25 04:11:48;;;;;;;3.17;1.60;;;;;;;12.56;78.26;99713.31;2167238;81;21143;-75
2021/05/25 04:14:49;;;;;;;3.98;2.37;;;;;;;12.61;78.13;99704.74;2165374;81;21001;-76
2021/05/25 04:17:53;;;;;;;2.60;1.80;;;;;;;12.75;78.06;99705.70;2164339;81;21609;-75
2021/05/25 04:20:55;;;;;;;2.85;1.80;;;;;;;12.83;77.88;99709.56;2166477;81;21060;-77
2021/05/25 04:23:56;;;;;;;1.72;1.62;;;;;;;12.86;77.73;99709.17;2162708;81;21133;-76
2021/05/25 04:26:57;;;;;;;2.37;1.70;;;;;;;12.89;77.64;99709.30;2165952;81;21562;-77
2021/05/25 04:29:58;;;;;;;6.12;2.22;;;;;;;12.91;77.60;99722.75;2165704;80;21064;-76
2021/05/25 04:33:00;;;;;;;2.52;2.00;;;;;;;12.92;77.64;99720.42;2166336;80;21029;-78
2021/05/25 04:36:04;;;;;;;3.27;2.10;;;;;;;12.94;77.51;99720.21;2162643;81;21151;-76
2021/05/25 04:39:05;;;;;;;2.60;1.90;;;;;;;12.95;77.44;99721.36;2165510;81;21053;-76
2021/05/25 04:42:06;;;;;;;3.92;1.90;;;;;;;13.03;77.48;99723.56;2164710;81;21064;-75
2021/05/25 04:45:10;;;;;;;2.77;1.70;;;;;;;13.14;77.53;99731.03;2168504;81;20994;-75
2021/05/25 04:48:12;;;;;;;2.27;1.80;;;;;;;13.24;77.29;99728.86;2167166;81;21027;-76
2021/05/25 04:51:13;;;;;;;1.82;1.62;;;;;;;13.42;77.22;99738.55;2164817;81;21107;-75
2021/05/25 04:54:14;;;;;;;1.90;1.50;;;;;;;13.74;76.94;99729.64;2162163;80;21027;-75
2021/05/25 04:57:15;;;;;;;2.15;1.75;;;;;;;14.32;77.06;99722.59;2200672;80;21130;-76
2021/05/25 05:00:23;;;;;;;2.20;1.70;;;;;;;15.20;76.60;99721.19;2198578;80;21547;-76
2021/05/25 05:03:26;;;;;;;2.75;1.45;;;;;;;15.51;75.17;99727.73;2171309;80;21123;-78
2021/05/25 05:06:27;;;;;;;1.50;1.40;;;;;;;15.81;74.69;99727.59;2182380;79;21002;-75
2021/05/25 05:09:28;;;;;;;1.47;1.37;;;;;;;16.50;74.45;99728.77;2183122;80;21020;-79
2021/05/25 05:12:30;;;;;;;2.15;1.67;;;;;;;17.26;73.48;99728.34;2165647;80;21078;-77
2021/05/25 05:15:31;;;;;;;1.92;1.60;;;;;;;17.87;72.58;99732.09;2201248;80;21070;-76
2021/05/25 05:18:33;;;;;;;2.08;1.45;;;;;;;18.57;71.15;99740.48;2199798;80;21579;-75
2021/05/25 05:21:34;;;;;;;1.90;1.60;;;;;;;19.04;69.61;99743.34;2182350;80;21074;-79
2021/05/25 05:24:36;;;;;;;2.35;1.25;;;;;;;19.60;68.88;99751.11;2203108;78;21090;-77
2021/05/25 05:27:38;;;;;;;3.65;1.52;;;;;;;19.88;67.02;99766.56;2203408;78;21024;-78
2021/05/25 05:30:39;;;;;;;2.98;1.50;;;;;;;20.13;66.42;99776.53;2164594;80;21087;-76
2021/05/25 05:33:41;;;;;;;4.05;2.30;;;;;;;20.18;65.21;99773.63;2197529;80;21090;-76
2021/05/25 05:36:42;;;;;;;3.75;1.50;;;;;;;20.13;64.58;99764.41;2200804;78;21063;-76
2021/05/25 05:39:44;;;;;;;1.32;1.22;;;;;;;20.11;64.83;99766.51;2197838;80;20970;-74
2021/05/25 05:42:45;;;;;;;6.50;2.33;;;;;;;20.05;62.35;99768.81;2198240;80;21219;-77
2021/05/25 05:45:46;;;;;;;3.62;2.00;;;;;;;19.81;62.91;99768.55;2197560;80;21012;-75
2021/05/25 05:48:48;;;;;;;3.17;1.65;;;;;;;19.53;62.54;99766.01;2196636;80;21072;-78
2021/05/25 05:51:52;;;;;;;3.02;2.02;;;;;;;19.09;62.61;99774.92;2198766;80;21527;-77
2021/05/25 05:54:54;;;;;;;2.02;1.82;;;;;;;18.60;61.79;99777.65;2182192;80;21077;-76
2021/05/25 05:57:55;;;;;;;3.85;1.98;;;;;;;18.00;62.33;99775.42;2181675;80;21598;-76
2021/05/25 06:00:57;;;;;;;3.25;1.82;;;;;;;17.85;63.55;99775.27;2177323;80;21522;-74
2021/05/25 06:03:58;;;;;;;3.47;2.08;;;;;;;18.02;63.05;99758.55;2181918;80;21542;-76
2021/05/25 06:06:59;;;;;;;3.95;2.22;;;;;;;18.26;63.01;99754.95;2178385;80;21026;-76
2021/05/25 06:10:02;;;;;;;3.85;2.12;;;;;;;18.79;62.83;99755.61;2178573;80;21658;-74
2021/05/25 06:13:05;;;;;;;3.75;1.90;;;;;;;19.36;62.56;99759.16;2181815;80;21050;-75
2021/05/25 06:16:07;;;;;;;3.27;2.05;;;;;;;19.27;60.96;99767.28;2178826;80;21052;-73
2021/05/25 06:19:09;;;;;;;2.80;1.95;;;;;;;19.18;60.58;99773.53;2176053;80;21603;-75
2021/05/25 06:22:11;;;;;;;5.80;1.90;;;;;;;19.39;60.77;99776.70;2177579;80;21536;-74
2021/05/25 06:25:16;;;;;;;2.83;1.57;;;;;;;19.62;59.20;99768.62;2172733;80;21617;-76
2021/05/25 06:28:17;;;;;;;2.65;1.50;;;;;;;19.38;59.87;99774.55;2181126;80;21058;-77
2021/05/25 06:31:18;;;;;;;2.52;1.67;;;;;;;19.54;59.50;99778.43;2175724;80;21058;-77
2021/05/25 06:34:21;;;;;;;1.70;1.60;;;;;;;19.83;58.77;99777.22;2176194;80;21023;-76
2021/05/25 06:37:22;;;;;;;4.37;1.57;;;;;;;19.53;57.72;99786.19;2175851;80;21023;-74
2021/05/25 06:40:25;;;;;;;2.67;1.67;;;;;;;19.23;58.15;99782.23;2174210;80;21075;-75
2021/05/25 06:43:26;;;;;;;2.65;1.60;;;;;;;18.76;58.30;99790.20;2179453;80;21091;-73
2021/05/25 06:46:28;;;;;;;2.45;1.45;;;;;;;18.36;58.46;99792.85;2174138;80;21542;-75
2021/05/25 06:49:29;;;;;;;1.42;1.20;;;;;;;17.86;58.46;99798.36;2181281;80;21005;-74
2021/05/25 06:52:30;;;;;;;2.42;1.70;;;;;;;17.49;59.29;99804.16;2180880;80;20980;-74
2021/05/25 06:55:31;;;;;;;2.35;1.50;;;;;;;17.28;59.85;99814.73;2185909;79;21031;-77
2021/05/25 06:58:32;;;;;;;2.17;1.50;;;;;;;17.07;60.06;99815.92;2189116;79;21700;-72
2021/05/25 07:01:34;;;;;;;2.95;1.77;;;;;;;16.73;59.96;99818.47;2187987;79;21609;-74
2021/05/25 07:04:35;;;;;;;3.40;1.80;;;;;;;16.42;60.48;99819.23;2153103;80;21027;-75
2021/05/25 07:07:37;;;;;;;3.17;2.10;;;;;;;16.16;60.67;99824.13;2185349;79;21086;-75
2021/05/25 07:10:38;;;;;;;2.85;1.20;;;;;;;15.84;60.79;99822.67;2193795;79;21007;-75
2021/05/25 07:13:39;;;;;;;2.55;1.37;;;;;;;15.61;61.44;99833.25;2187070;79;21015;-76
2021/05/25 07:16:41;;;;;;;2.72;1.57;;;;;;;15.46;62.41;99832.13;2188180;79;21665;-74
2021/05/25 07:19:42;;;;;;;2.90;1.47;;;;;;;15.34;62.73;99837.77;2192258;79;21026;-73
2021/05/25 07:22:43;;;;;;;2.50;1.50;;;;;;;15.23;62.87;99834.36;2187354;79;21061;-75
2021/05/25 07:25:44;;;;;;;2.02;0.88;;;;;;;15.24;63.43;99835.50;2189261;79;20981;-75
2021/05/25 07:28:46;;;;;;;3.25;1.65;;;;;;;15.05;63.21;99833.63;2187114;79;21501;-76
2021/05/25 07:31:47;;;;;;;2.52;1.72;;;;;;;14.96;63.24;99841.52;2187523;79;21083;-74
2021/05/25 07:34:49;;;;;;;1.92;1.10;;;;;;;14.96;63.40;99845.02;2185104;79;21518;-74
2021/05/25 07:37:50;;;;;;;1.52;1.20;;;;;;;14.88;63.06;99838.52;2189121;79;20999;-76
2021/05/25 07:40:55;;;;;;;4.20;1.62;;;;;;;14.71;63.35;99859.41;2184581;80;21053;-77
2021/05/25 07:43:56;;;;;;;4.47;1.62;;;;;;;14.53;63.48;99861.83;2187918;79;20990;-78
2021/05/25 07:46:59;;;;;;;1.42;1.32;;;;;;;14.30;64.65;99877.59;2187278;79;20980;-78
2021/05/25 07:50:12;;;;;;;2.58;1.50;;;;;;;14.11;64.44;99877.78;2187998;79;21531;-80
2021/05/25 07:53:04;;;;;;;9.80;2.70;;;;;;;13.83;64.15;99888.45;2181690;79;21104;-77
2021/05/25 07:56:05;;;;;;;3.72;1.50;;;;;;;13.63;64.77;99883.48;2209238;80;21068;-77
2021/05/25 07:59:06;;;;;;;3.37;1.40;;;;;;;13.49;65.22;99897.67;2184206;80;21074;-80
2021/05/25 08:02:07;;;;;;;1.30;1.20;;;;;;;13.35;65.54;99916.73;2185639;80;21045;-78
2021/05/25 08:05:12;;;;;;;1.45;1.30;;;;;;;13.18;65.98;99925.45;2183241;80;21541;-79
2021/05/25 08:08:13;;;;;;;1.37;0.90;;;;;;;13.04;65.82;99934.30;2167333;80;21083;-77
2021/05/25 08:11:14;;;;;;;1.50;1.20;;;;;;;12.97;65.84;99939.53;2184292;80;21002;-77
2021/05/25 08:14:16;;;;;;;2.62;1.27;;;;;;;12.88;66.33;99942.81;2183854;80;21079;-79
2021/05/25 08:17:45;;;;;;;1.72;1.40;;;;;;;12.80;66.69;99934.92;2179698;80;21049;-77
2021/05/25 08:20:30;;;;;;;1.67;1.37;;;;;;;12.77;67.34;99937.95;2178751;80;21107;-76
2021/05/25 08:23:31;;;;;;;1.40;1.15;;;;;;;12.75;67.16;99945.29;2179048;80;21087;-77
2021/05/25 08:26:34;;;;;;;2.45;1.20;;;;;;;12.74;67.09;99956.96;2163898;80;21090;-77
2021/05/25 08:29:35;;;;;;;3.08;1.40;;;;;;;12.64;66.73;99956.41;2183575;80;21017;-78
2021/05/25 08:32:37;;;;;;;2.83;0.98;;;;;;;12.55;67.35;99967.14;2184211;80;21056;-77
2021/05/25 08:35:38;;;;;;;3.05;1.35;;;;;;;12.45;67.37;99973.77;2182565;80;21089;-78
2021/05/25 08:38:39;;;;;;;3.33;1.25;;;;;;;12.37;67.60;99979.17;2187292;79;21640;-80
2021/05/25 08:41:40;;;;;;;6.40;1.72;;;;;;;12.30;68.12;99987.88;2179164;80;21025;-76
2021/05/25 08:44:42;;;;;;;2.17;1.37;;;;;;;12.28;68.61;99995.72;2185476;80;21619;-76
2021/05/25 08:47:45;;;;;;;3.52;1.45;;;;;;;12.25;68.77;100002.73;2182016;80;21094;-78
2021/05/25 08:50:47;;;;;;;7.05;1.50;;;;;;;12.21;69.53;100014.72;2181328;80;20992;-78
2021/05/25 08:53:49;;;;;;;4.03;1.50;;;;;;;12.17;69.30;100018.25;2179054;80;21120;-78
2021/05/25 08:56:50;;;;;;;2.65;1.22;;;;;;;12.19;69.60;100026.89;2175672;80;21521;-76
2021/05/25 08:59:51;;;;;;;2.45;1.27;;;;;;;12.23;69.48;100022.03;2170606;80;21587;-80
2021/05/25 09:02:53;;;;;;;1.47;1.12;;;;;;;12.26;69.63;100022.48;2172335;80;21758;-79
2021/05/25 09:06:07;;;;;;;1.10;1.00;;;;;;;12.27;69.77;100021.47;2172038;80;21005;-77
2021/05/25 09:09:14;;;;;;;1.20;1.05;;;;;;;12.26;69.40;100019.00;2175332;80;21551;-77
2021/05/25 09:12:16;;;;;;;2.60;1.15;;;;;;;12.27;69.80;100021.98;2177041;80;21355;-78
2021/05/25 09:15:40;;;;;;;3.27;1.27;;;;;;;12.34;70.42;100020.27;2177969;80;21884;-78
2021/05/25 09:18:47;;;;;;;1.80;1.30;;;;;;;12.38;70.21;100025.53;2178590;80;20997;-76
2021/05/25 09:21:48;;;;;;;2.27;1.35;;;;;;;12.42;69.75;100033.49;2175261;80;21057;-77
2021/05/25 09:24:50;;;;;;;1.95;1.37;;;;;;;12.44;69.88;100027.97;2178993;80;21035;-78
2021/05/25 09:27:59;;;;;;;3.22;1.52;;;;;;;12.46;69.65;100032.11;2157370;81;21110;-77
2021/05/25 09:31:03;;;;;;;2.77;1.42;;;;;;;12.54;69.76;100031.22;2178557;80;21626;-79
2021/05/25 09:34:12;;;;;;;3.45;1.50;;;;;;;12.63;69.87;100031.95;2176585;80;21123;-79
2021/05/25 09:37:13;;;;;;;4.47;1.87;;;;;;;12.77;69.77;100019.16;2176844;80;21026;-77
2021/05/25 09:40:17;;;;;;;1.65;1.27;;;;;;;12.87;69.77;100018.39;2177657;80;21048;-77
2021/05/25 09:43:22;;;;;;;1.80;1.40;;;;;;;12.98;69.61;100018.44;2181021;80;21021;-80
2021/05/25 09:46:32;;;;;;;2.83;1.57;;;;;;;13.13;69.78;100022.41;2179463;80;21003;-78
2021/05/25 09:49:33;;;;;;;5.33;1.60;;;;;;;13.28;69.56;100012.58;2181573;80;21587;-82
2021/05/25 09:52:35;;;;;;;2.37;1.72;;;;;;;13.45;69.52;99990.01;2180942;80;21097;-77
2021/05/25 09:55:53;;;;;;;1.80;1.37;;;;;;;13.51;69.63;99983.09;2196235;80;21525;-80
2021/05/25 09:58:59;;;;;;;3.15;1.55;;;;;;;13.54;68.82;99981.39;2194137;80;21055;-78
2021/05/25 10:02:19;;;;;;;5.53;2.30;;;;;;;13.68;68.27;99975.68;2211655;80;21020;-79
2021/05/25 10:05:21;;;;;;;3.55;1.90;;;;;;;13.83;67.72;99981.80;2208499;80;21587;-79
2021/05/25 10:08:24;;;;;;;2.37;1.77;;;;;;;13.95;67.33;100001.28;2206893;80;21039;-78
2021/05/25 10:11:28;;;;;;;3.05;1.90;;;;;;;14.11;67.31;100009.03;2209010;80;21083;-77
2021/05/25 10:14:30;;;;;;;4.28;1.98;;;;;;;14.15;67.08;99976.11;2175193;80;21142;-77
2021/05/25 10:20:39;;;;;;;4.30;1.70;;;;;;;14.20;66.55;99956.34;2208187;80;20998;-79
2021/05/25 10:23:43;;;;;;;1.95;1.50;;;;;;;14.24;66.61;99959.74;2213713;79;21071;-79
2021/05/25 10:26:44;;;;;;;2.60;1.52;;;;;;;14.26;66.33;99945.70;2191532;80;21019;-76
2021/05/25 10:29:47;;;;;;;4.67;1.70;;;;;;;14.31;66.17;100002.00;2210309;78;21051;-80
2021/05/25 10:33:07;;;;;;;3.62;1.55;;;;;;;14.34;66.41;100024.30;2209169;78;21601;-79
2021/05/25 10:36:09;;;;;;;2.87;1.50;;;;;;;14.48;66.98;100001.19;2216845;78;21050;-78
2021/05/25 10:39:38;;;;;;;2.87;1.75;;;;;;;14.63;66.54;100018.98;2190950;80;21071;-80
2021/05/25 10:42:39;;;;;;;3.85;1.70;;;;;;;14.66;65.91;100014.06;2202387;80;21565;-78
2021/05/25 10:45:40;;;;;;;3.72;1.85;;;;;;;14.65;66.23;99996.41;2182481;80;21003;-78
2021/05/25 10:49:04;;;;;;;2.40;1.90;;;;;;;14.68;65.85;100003.20;2206032;80;21104;-79
2021/05/25 10:52:10;;;;;;;4.28;2.72;;;;;;;14.72;66.03;100008.45;2215233;78;21074;-79
2021/05/25 10:55:17;;;;;;;5.25;2.40;;;;;;;14.80;65.85;100016.31;2200207;80;21097;-81
2021/05/25 10:58:33;;;;;;;3.75;2.47;;;;;;;14.74;64.67;100005.91;2174245;80;20994;-80
2021/05/25 11:01:36;;;;;;;6.25;2.40;;;;;;;14.62;64.92;100006.14;2177615;80;21081;-77
2021/05/25 11:04:38;;;;;;;9.73;5.75;;;;;;;14.65;64.98;100007.60;2180087;80;21037;-80
2021/05/25 11:07:41;;;;;;;2.85;2.10;;;;;;;14.72;65.11;100009.27;2181056;80;21012;-76
2021/05/25 11:11:04;;;;;;;4.12;1.72;;;;;;;14.78;63.80;100016.52;2180696;80;21526;-78
2021/05/25 11:14:17;;;;;;;2.98;2.00;;;;;;;14.72;63.12;100016.46;2177750;80;21060;-77
2021/05/25 11:17:32;;;;;;;4.87;2.90;;;;;;;14.64;62.86;100024.14;2177072;80;21048;-79
2021/05/25 11:20:53;;;;;;;2.72;2.12;;;;;;;14.72;63.74;100015.12;2179313;80;21080;-78
2021/05/25 11:23:52;;;;;;;5.15;2.25;;;;;;;14.89;62.53;100018.30;2177134;80;21095;-81
2021/05/25 11:27:08;;;;;;;3.85;1.67;;;;;;;14.99;62.61;100023.61;2180942;80;21071;-78
2021/05/25 11:30:28;;;;;;;4.62;1.80;;;;;;;15.08;62.15;100009.57;2178191;80;21135;-81
2021/05/25 11:33:34;;;;;;;2.58;2.00;;;;;;;15.22;62.14;100015.28;2173679;80;20998;-80
2021/05/25 11:36:36;;;;;;;4.05;2.15;;;;;;;15.35;62.15;100007.84;2184376;80;21164;-79
2021/05/25 11:39:38;;;;;;;2.87;2.30;;;;;;;15.69;62.44;100007.45;2179259;80;21091;-80
2021/05/25 11:42:46;;;;;;;2.90;1.90;;;;;;;15.97;61.73;99996.58;2178766;80;21147;-76
2021/05/25 11:45:48;;;;;;;1.98;1.77;;;;;;;16.09;61.14;100005.63;2177250;80;21090;-79
2021/05/25 11:48:49;;;;;;;3.83;1.90;;;;;;;16.04;60.39;100021.48;2177896;80;21089;-78
2021/05/25 11:51:50;;;;;;;2.17;1.60;;;;;;;15.91;60.34;100004.91;2176234;80;21024;-79
2021/05/25 11:55:05;;;;;;;3.58;2.10;;;;;;;15.86;59.92;99995.33;2177475;80;21036;-78
2021/05/25 11:58:06;;;;;;;3.45;2.00;;;;;;;15.83;59.71;100000.27;2175853;80;20973;-80
2021/05/25 12:01:07;;;;;;;3.92;2.05;;;;;;;15.83;59.74;100013.65;2182763;80;21535;-81
2021/05/25 12:04:09;;;;;;;4.87;2.12;;;;;;;15.80;58.80;100016.73;2177833;80;21067;-80
2021/05/25 12:07:16;;;;;;;2.10;1.77;;;;;;;15.80;59.90;100011.38;2177128;80;21015;-79
2021/05/25 12:10:20;;;;;;;2.62;1.82;;;;;;;15.92;59.60;100003.05;2178517;80;21548;-78
2021/05/25 12:13:21;;;;;;;2.20;1.70;;;;;;;16.04;58.71;100004.59;2177867;80;21061;-74
2021/05/25 12:16:22;;;;;;;1.85;1.60;;;;;;;16.13;58.08;100018.08;2175068;80;20984;-78
2021/05/25 12:19:24;;;;;;;3.15;1.72;;;;;;;16.10;57.65;100014.48;2177599;80;21091;-80
2021/05/25 12:22:38;;;;;;;2.37;1.80;;;;;;;16.14;57.58;100017.89;2179027;80;21520;-80
2021/05/25 12:25:41;;;;;;;5.60;2.00;;;;;;;16.13;56.07;100007.38;2176430;80;21121;-78
2021/05/25 12:28:46;;;;;;;2.47;1.90;;;;;;;16.05;56.80;99999.55;2178405;80;21076;-77
2021/05/25 12:31:46;;;;;;;2.30;1.70;;;;;;;16.11;57.57;99998.23;2179643;80;21111;-79
2021/05/25 12:34:47;;;;;;;4.47;2.15;;;;;;;16.21;56.55;99991.63;2182698;79;21067;-77
2021/05/25 12:38:08;;;;;;;4.62;2.90;;;;;;;16.17;56.79;99989.89;2180672;80;21613;-79
2021/05/25 12:41:09;;;;;;;4.17;2.30;;;;;;;16.26;56.32;99994.00;2176431;80;21549;-81
2021/05/25 12:44:16;;;;;;;2.10;1.60;;;;;;;16.22;56.69;99998.13;2179329;80;21058;-78
2021/05/25 12:47:18;;;;;;;2.30;1.80;;;;;;;16.26;56.34;100017.27;2179538;80;21049;-81
2021/05/25 12:50:33;;;;;;;3.08;1.85;;;;;;;16.24;55.68;100021.48;2178288;80;21175;-80
2021/05/25 12:53:52;;;;;;;4.20;1.77;;;;;;;16.26;55.84;100025.30;2178544;80;21060;-79
2021/05/25 12:56:56;;;;;;;2.70;1.45;;;;;;;16.32;56.34;100020.46;2180757;80;21070;-76
2021/05/25 13:00:03;;;;;;;4.20;2.37;;;;;;;16.33;54.89;100018.08;2177323;80;21072;-78
2021/05/25 13:03:24;;;;;;;4.08;1.77;;;;;;;16.27;54.38;100017.05;2174506;80;21436;-79
2021/05/25 13:06:29;;;;;;;3.98;1.50;;;;;;;16.23;54.86;100015.02;2177507;80;21090;-78
2021/05/25 13:09:43;;;;;;;3.10;1.50;;;;;;;16.28;54.83;100030.77;2177413;80;21100;-77
2021/05/25 13:12:44;;;;;;;3.12;1.57;;;;;;;16.30;54.38;100046.12;2179245;80;21121;-81
2021/05/25 13:15:49;;;;;;;2.30;1.50;;;;;;;16.17;54.49;100048.78;2175957;80;21013;-78
2021/05/25 13:18:52;;;;;;;1.67;1.17;;;;;;;16.16;54.65;100050.31;2176099;80;21023;-78
2021/05/25 13:21:53;;;;;;;2.35;1.20;;;;;;;16.04;54.05;100050.09;2177864;80;21109;-77
2021/05/25 13:25:03;;;;;;;2.40;1.20;;;;;;;15.88;54.24;100056.16;2180177;80;21031;-77
2021/05/25 13:28:04;;;;;;;3.55;1.20;;;;;;;15.75;54.06;100061.98;2178864;80;22427;-80
2021/05/25 13:31:28;;;;;;;2.98;1.10;;;;;;;15.56;54.14;100063.02;2175476;80;21108;-77
2021/05/25 13:34:29;;;;;;;5.97;1.95;;;;;;;15.44;54.31;100052.08;2176641;80;21092;-77
2021/05/25 13:37:36;;;;;;;3.72;1.98;;;;;;;15.38;55.04;100058.75;2179001;80;21292;-77
2021/05/25 13:40:38;;;;;;;4.58;1.42;;;;;;;15.38;54.70;100056.08;2179943;80;21038;-79
2021/05/25 13:43:40;;;;;;;2.37;1.40;;;;;;;15.34;54.65;100048.13;2177669;80;21130;-78
2021/05/25 13:46:41;;;;;;;3.72;1.50;;;;;;;15.30;54.20;100050.90;2179371;80;21685;-81
2021/05/25 13:49:51;;;;;;;3.95;1.77;;;;;;;15.31;54.51;100057.87;2180887;80;21717;-77
2021/05/25 13:52:53;;;;;;;3.50;1.55;;;;;;;15.32;54.48;100051.02;2177493;80;21121;-78
2021/05/25 13:55:55;;;;;;;3.90;1.40;;;;;;;15.34;54.24;100044.11;2185444;80;21057;-77
2021/05/25 13:59:06;;;;;;;2.77;1.22;;;;;;;15.42;54.33;100043.42;2183579;80;21017;-80
2021/05/25 14:02:04;;;;;;;5.90;1.25;;;;;;;15.50;53.74;100033.59;2188586;80;21122;-79
2021/05/25 14:05:06;;;;;;;4.53;1.70;;;;;;;15.51;54.14;100026.69;2192039;80;21053;-78
2021/05/25 14:08:08;;;;;;;2.02;1.52;;;;;;;15.60;54.26;100028.70;2191943;80;21563;-77
2021/05/25 14:11:11;;;;;;;2.45;1.45;;;;;;;15.56;53.53;100026.91;2187696;80;21031;-79
2021/05/25 14:14:12;;;;;;;2.55;1.50;;;;;;;15.50;53.66;100018.88;2186450;80;21077;-80
2021/05/25 14:17:13;;;;;;;3.27;1.60;;;;;;;15.51;53.49;100008.48;2192211;80;21010;-78
2021/05/25 14:20:15;;;;;;;3.05;1.40;;;;;;;15.46;53.51;100015.80;2188747;80;21203;-79
2021/05/25 14:23:18;;;;;;;4.10;1.50;;;;;;;15.37;53.95;100016.98;2184562;80;21056;-77
2021/05/25 14:26:20;;;;;;;5.67;1.80;;;;;;;15.41;54.50;100015.05;2164408;80;20973;-80